sensor_id;sensor_type;location;lat;lon;timestamp;P1;durP1;ratioP1;P2;durP2;ratioP2
37559;SDS011;23398;50.928;7.084;2024-01-16T00:01:54;5.83;;;3.63;;
37559;SDS011;23398;50.928;7.084;2024-01-16T00:04:19;6.00;;;3.85;;
37559;SDS011;23398;50.928;7.084;2024-01-16T00:06:45;4.85;;;3.35;;
37559;SDS011;23398;50.928;7.084;2024-01-16T00:09:11;6.50;;;3.73;;
37559;SDS011;23398;50.928;7.084;2024-01-16T00:11:40;6.70;;;3.78;;
37559;SDS011;23398;50.928;7.084;2024-01-16T00:14:06;3.90;;;3.40;;
37559;SDS011;23398;50.928;7.084;2024-01-16T00:16:32;7.23;;;3.87;;
37559;SDS011;23398;50.928;7.084;2024-01-16T00:18:57;5.57;;;3.70;;
37559;SDS011;23398;50.928;7.084;2024-01-16T00:21:23;6.37;;;3.60;;
37559;SDS011;23398;50.928;7.084;2024-01-16T00:23:48;5.40;;;3.60;;
37559;SDS011;23398;50.928;7.084;2024-01-16T00:26:21;5.63;;;3.73;;
37559;SDS011;23398;50.928;7.084;2024-01-16T00:28:47;7.77;;;3.90;;
37559;SDS011;23398;50.928;7.084;2024-01-16T00:31:13;5.57;;;3.60;;
37559;SDS011;23398;50.928;7.084;2024-01-16T00:33:39;6.60;;;3.67;;
37559;SDS011;23398;50.928;7.084;2024-01-16T00:36:05;7.23;;;3.83;;
37559;SDS011;23398;50.928;7.084;2024-01-16T00:38:34;6.60;;;4.10;;
37559;SDS011;23398;50.928;7.084;2024-01-16T00:40:59;7.47;;;4.27;;
37559;SDS011;23398;50.928;7.084;2024-01-16T00:43:25;5.43;;;3.53;;
37559;SDS011;23398;50.928;7.084;2024-01-16T00:45:50;5.27;;;3.80;;
37559;SDS011;23398;50.928;7.084;2024-01-16T00:48:16;8.77;;;4.30;;
37559;SDS011;23398;50.928;7.084;2024-01-16T00:50:43;7.33;;;3.87;;
37559;SDS011;23398;50.928;7.084;2024-01-16T00:53:11;7.77;;;4.10;;
37559;SDS011;23398;50.928;7.084;2024-01-16T00:55:36;7.07;;;3.80;;
37559;SDS011;23398;50.928;7.084;2024-01-16T00:58:02;7.80;;;4.03;;
37559;SDS011;23398;50.928;7.084;2024-01-16T01:00:28;7.78;;;4.13;;
37559;SDS011;23398;50.928;7.084;2024-01-16T01:02:56;5.87;;;3.63;;
37559;SDS011;23398;50.928;7.084;2024-01-16T01:05:22;6.47;;;4.13;;
37559;SDS011;23398;50.928;7.084;2024-01-16T01:07:53;8.67;;;4.30;;
37559;SDS011;23398;50.928;7.084;2024-01-16T01:10:21;7.97;;;4.13;;
37559;SDS011;23398;50.928;7.084;2024-01-16T01:12:47;5.97;;;4.00;;
37559;SDS011;23398;50.928;7.084;2024-01-16T01:15:13;7.40;;;3.97;;
37559;SDS011;23398;50.928;7.084;2024-01-16T01:17:39;8.10;;;4.22;;
37559;SDS011;23398;50.928;7.084;2024-01-16T01:20:05;6.60;;;3.97;;
37559;SDS011;23398;50.928;7.084;2024-01-16T01:22:31;6.37;;;4.60;;
37559;SDS011;23398;50.928;7.084;2024-01-16T01:24:57;6.00;;;4.10;;
37559;SDS011;23398;50.928;7.084;2024-01-16T01:27:23;5.47;;;4.07;;
37559;SDS011;23398;50.928;7.084;2024-01-16T01:29:48;5.97;;;4.10;;
37559;SDS011;23398;50.928;7.084;2024-01-16T01:32:14;6.67;;;3.87;;
37559;SDS011;23398;50.928;7.084;2024-01-16T01:34:42;6.87;;;3.70;;
37559;SDS011;23398;50.928;7.084;2024-01-16T01:37:08;5.77;;;3.70;;
37559;SDS011;23398;50.928;7.084;2024-01-16T01:39:34;6.63;;;3.77;;
37559;SDS011;23398;50.928;7.084;2024-01-16T01:41:59;6.43;;;3.73;;
37559;SDS011;23398;50.928;7.084;2024-01-16T01:44:25;6.50;;;3.83;;
37559;SDS011;23398;50.928;7.084;2024-01-16T01:46:51;4.87;;;4.03;;
37559;SDS011;23398;50.928;7.084;2024-01-16T01:49:19;5.70;;;3.53;;
37559;SDS011;23398;50.928;7.084;2024-01-16T01:51:45;5.57;;;3.70;;
37559;SDS011;23398;50.928;7.084;2024-01-16T01:54:11;5.43;;;3.50;;
37559;SDS011;23398;50.928;7.084;2024-01-16T01:56:38;5.50;;;3.20;;
37559;SDS011;23398;50.928;7.084;2024-01-16T01:59:04;6.70;;;3.43;;
37559;SDS011;23398;50.928;7.084;2024-01-16T02:01:31;5.43;;;3.63;;
37559;SDS011;23398;50.928;7.084;2024-01-16T02:03:57;5.07;;;2.97;;
37559;SDS011;23398;50.928;7.084;2024-01-16T02:06:26;5.20;;;3.23;;
37559;SDS011;23398;50.928;7.084;2024-01-16T02:08:51;4.90;;;2.90;;
37559;SDS011;23398;50.928;7.084;2024-01-16T02:11:17;4.63;;;2.90;;
37559;SDS011;23398;50.928;7.084;2024-01-16T02:13:42;5.57;;;2.87;;
37559;SDS011;23398;50.928;7.084;2024-01-16T02:16:21;4.60;;;3.17;;
37559;SDS011;23398;50.928;7.084;2024-01-16T02:18:48;6.15;;;3.50;;
37559;SDS011;23398;50.928;7.084;2024-01-16T02:21:23;5.13;;;3.65;;
37559;SDS011;23398;50.928;7.084;2024-01-16T02:23:52;8.17;;;3.70;;
37559;SDS011;23398;50.928;7.084;2024-01-16T02:26:18;5.33;;;3.87;;
37559;SDS011;23398;50.928;7.084;2024-01-16T02:28:44;6.70;;;3.63;;
37559;SDS011;23398;50.928;7.084;2024-01-16T02:31:10;6.23;;;3.90;;
37559;SDS011;23398;50.928;7.084;2024-01-16T02:33:36;6.40;;;3.50;;
37559;SDS011;23398;50.928;7.084;2024-01-16T02:36:01;7.93;;;3.73;;
37559;SDS011;23398;50.928;7.084;2024-01-16T02:38:27;7.17;;;3.73;;
37559;SDS011;23398;50.928;7.084;2024-01-16T02:40:52;5.80;;;3.73;;
37559;SDS011;23398;50.928;7.084;2024-01-16T02:43:18;6.33;;;4.03;;
37559;SDS011;23398;50.928;7.084;2024-01-16T02:45:43;11.07;;;3.77;;
37559;SDS011;23398;50.928;7.084;2024-01-16T02:48:09;7.25;;;4.05;;
37559;SDS011;23398;50.928;7.084;2024-01-16T02:50:35;6.07;;;3.80;;
37559;SDS011;23398;50.928;7.084;2024-01-16T02:53:00;5.67;;;3.60;;
37559;SDS011;23398;50.928;7.084;2024-01-16T02:55:26;5.07;;;3.50;;
37559;SDS011;23398;50.928;7.084;2024-01-16T02:57:51;6.07;;;3.70;;
37559;SDS011;23398;50.928;7.084;2024-01-16T03:00:17;6.23;;;3.90;;
37559;SDS011;23398;50.928;7.084;2024-01-16T03:02:43;5.97;;;3.43;;
37559;SDS011;23398;50.928;7.084;2024-01-16T03:05:09;7.70;;;3.73;;
37559;SDS011;23398;50.928;7.084;2024-01-16T03:07:35;6.07;;;3.92;;
37559;SDS011;23398;50.928;7.084;2024-01-16T03:10:01;5.33;;;3.80;;
37559;SDS011;23398;50.928;7.084;2024-01-16T03:12:27;7.00;;;3.50;;
37559;SDS011;23398;50.928;7.084;2024-01-16T03:14:53;6.63;;;3.73;;
37559;SDS011;23398;50.928;7.084;2024-01-16T03:17:19;6.40;;;4.03;;
37559;SDS011;23398;50.928;7.084;2024-01-16T03:19:44;5.97;;;3.93;;
37559;SDS011;23398;50.928;7.084;2024-01-16T03:22:10;7.30;;;3.77;;
37559;SDS011;23398;50.928;7.084;2024-01-16T03:24:35;7.07;;;3.40;;
37559;SDS011;23398;50.928;7.084;2024-01-16T03:27:01;5.35;;;3.55;;
37559;SDS011;23398;50.928;7.084;2024-01-16T03:29:27;3.93;;;3.13;;
37559;SDS011;23398;50.928;7.084;2024-01-16T03:31:52;7.73;;;3.80;;
37559;SDS011;23398;50.928;7.084;2024-01-16T03:34:18;4.60;;;3.43;;
37559;SDS011;23398;50.928;7.084;2024-01-16T03:36:44;7.00;;;4.03;;
37559;SDS011;23398;50.928;7.084;2024-01-16T03:39:09;6.27;;;3.93;;
37559;SDS011;23398;50.928;7.084;2024-01-16T03:41:36;8.35;;;4.13;;
37559;SDS011;23398;50.928;7.084;2024-01-16T03:44:02;5.47;;;3.40;;
37559;SDS011;23398;50.928;7.084;2024-01-16T03:46:27;6.20;;;3.57;;
37559;SDS011;23398;50.928;7.084;2024-01-16T03:48:53;6.93;;;3.80;;
37559;SDS011;23398;50.928;7.084;2024-01-16T03:51:19;6.83;;;4.03;;
37559;SDS011;23398;50.928;7.084;2024-01-16T03:53:44;9.77;;;3.50;;
37559;SDS011;23398;50.928;7.084;2024-01-16T03:56:10;6.73;;;3.77;;
37559;SDS011;23398;50.928;7.084;2024-01-16T03:58:36;8.18;;;4.18;;
37559;SDS011;23398;50.928;7.084;2024-01-16T04:01:01;5.80;;;3.53;;
37559;SDS011;23398;50.928;7.084;2024-01-16T04:03:27;7.33;;;4.23;;
37559;SDS011;23398;50.928;7.084;2024-01-16T04:05:52;7.60;;;4.10;;
37559;SDS011;23398;50.928;7.084;2024-01-16T04:08:18;8.03;;;4.40;;
37559;SDS011;23398;50.928;7.084;2024-01-16T04:10:43;6.23;;;4.30;;
37559;SDS011;23398;50.928;7.084;2024-01-16T04:13:09;6.93;;;4.10;;
37559;SDS011;23398;50.928;7.084;2024-01-16T04:15:37;7.80;;;4.23;;
37559;SDS011;23398;50.928;7.084;2024-01-16T04:18:03;5.40;;;4.00;;
37559;SDS011;23398;50.928;7.084;2024-01-16T04:20:29;6.57;;;3.95;;
37559;SDS011;23398;50.928;7.084;2024-01-16T04:22:55;6.33;;;4.07;;
37559;SDS011;23398;50.928;7.084;2024-01-16T04:25:21;6.87;;;4.80;;
37559;SDS011;23398;50.928;7.084;2024-01-16T04:27:47;6.17;;;3.97;;
37559;SDS011;23398;50.928;7.084;2024-01-16T04:30:12;5.67;;;4.30;;
37559;SDS011;23398;50.928;7.084;2024-01-16T04:32:38;6.97;;;4.55;;
37559;SDS011;23398;50.928;7.084;2024-01-16T04:35:04;7.20;;;4.30;;
37559;SDS011;23398;50.928;7.084;2024-01-16T04:37:29;8.55;;;4.80;;
37559;SDS011;23398;50.928;7.084;2024-01-16T04:39:55;6.80;;;4.30;;
37559;SDS011;23398;50.928;7.084;2024-01-16T04:42:20;6.83;;;4.67;;
37559;SDS011;23398;50.928;7.084;2024-01-16T04:44:46;6.87;;;4.47;;
37559;SDS011;23398;50.928;7.084;2024-01-16T04:47:11;7.97;;;4.43;;
37559;SDS011;23398;50.928;7.084;2024-01-16T04:49:37;7.27;;;4.13;;
37559;SDS011;23398;50.928;7.084;2024-01-16T04:52:02;7.20;;;4.30;;
37559;SDS011;23398;50.928;7.084;2024-01-16T04:54:28;6.27;;;4.13;;
37559;SDS011;23398;50.928;7.084;2024-01-16T04:56:54;6.05;;;3.85;;
37559;SDS011;23398;50.928;7.084;2024-01-16T04:59:19;5.30;;;4.10;;
37559;SDS011;23398;50.928;7.084;2024-01-16T05:01:45;6.33;;;3.70;;
37559;SDS011;23398;50.928;7.084;2024-01-16T05:04:10;9.33;;;4.33;;
37559;SDS011;23398;50.928;7.084;2024-01-16T05:06:36;7.63;;;4.10;;
37559;SDS011;23398;50.928;7.084;2024-01-16T05:09:02;9.77;;;4.20;;
37559;SDS011;23398;50.928;7.084;2024-01-16T05:11:28;6.77;;;4.10;;
37559;SDS011;23398;50.928;7.084;2024-01-16T05:13:54;9.10;;;4.33;;
37559;SDS011;23398;50.928;7.084;2024-01-16T05:16:26;5.27;;;3.40;;
37559;SDS011;23398;50.928;7.084;2024-01-16T05:18:52;7.63;;;3.77;;
37559;SDS011;23398;50.928;7.084;2024-01-16T05:21:18;6.13;;;3.77;;
37559;SDS011;23398;50.928;7.084;2024-01-16T05:23:44;9.97;;;4.50;;
37559;SDS011;23398;50.928;7.084;2024-01-16T05:26:10;9.00;;;3.90;;
37559;SDS011;23398;50.928;7.084;2024-01-16T05:28:36;7.03;;;3.37;;
37559;SDS011;23398;50.928;7.084;2024-01-16T05:31:01;6.10;;;3.60;;
37559;SDS011;23398;50.928;7.084;2024-01-16T05:33:27;5.32;;;3.53;;
37559;SDS011;23398;50.928;7.084;2024-01-16T05:35:52;8.30;;;4.23;;
37559;SDS011;23398;50.928;7.084;2024-01-16T05:38:18;6.90;;;4.20;;
37559;SDS011;23398;50.928;7.084;2024-01-16T05:40:44;7.17;;;3.80;;
37559;SDS011;23398;50.928;7.084;2024-01-16T05:43:09;6.47;;;3.58;;
37559;SDS011;23398;50.928;7.084;2024-01-16T05:45:35;8.23;;;3.73;;
37559;SDS011;23398;50.928;7.084;2024-01-16T05:48:00;5.43;;;3.37;;
37559;SDS011;23398;50.928;7.084;2024-01-16T05:50:26;6.10;;;3.43;;
37559;SDS011;23398;50.928;7.084;2024-01-16T05:52:51;9.10;;;3.63;;
37559;SDS011;23398;50.928;7.084;2024-01-16T05:55:17;6.50;;;3.57;;
37559;SDS011;23398;50.928;7.084;2024-01-16T05:57:43;8.20;;;3.67;;
37559;SDS011;23398;50.928;7.084;2024-01-16T06:00:09;9.07;;;4.00;;
37559;SDS011;23398;50.928;7.084;2024-01-16T06:02:35;5.10;;;3.40;;
37559;SDS011;23398;50.928;7.084;2024-01-16T06:05:00;8.47;;;3.77;;
37559;SDS011;23398;50.928;7.084;2024-01-16T06:07:27;9.87;;;4.30;;
37559;SDS011;23398;50.928;7.084;2024-01-16T06:09:53;7.87;;;3.70;;
37559;SDS011;23398;50.928;7.084;2024-01-16T06:12:19;5.33;;;3.80;;
37559;SDS011;23398;50.928;7.084;2024-01-16T06:14:45;6.23;;;3.70;;
37559;SDS011;23398;50.928;7.084;2024-01-16T06:17:10;7.53;;;3.73;;
37559;SDS011;23398;50.928;7.084;2024-01-16T06:19:36;7.90;;;3.63;;
37559;SDS011;23398;50.928;7.084;2024-01-16T06:22:01;5.73;;;3.10;;
37559;SDS011;23398;50.928;7.084;2024-01-16T06:24:27;4.93;;;3.33;;
37559;SDS011;23398;50.928;7.084;2024-01-16T06:26:54;6.23;;;3.23;;
37559;SDS011;23398;50.928;7.084;2024-01-16T06:29:19;9.00;;;3.57;;
37559;SDS011;23398;50.928;7.084;2024-01-16T06:31:45;7.60;;;3.30;;
37559;SDS011;23398;50.928;7.084;2024-01-16T06:34:10;5.73;;;2.93;;
37559;SDS011;23398;50.928;7.084;2024-01-16T06:36:36;6.33;;;3.40;;
37559;SDS011;23398;50.928;7.084;2024-01-16T06:39:01;6.67;;;3.70;;
37559;SDS011;23398;50.928;7.084;2024-01-16T06:41:28;7.13;;;3.90;;
37559;SDS011;23398;50.928;7.084;2024-01-16T06:43:53;5.60;;;3.40;;
37559;SDS011;23398;50.928;7.084;2024-01-16T06:46:19;5.97;;;3.50;;
37559;SDS011;23398;50.928;7.084;2024-01-16T06:48:44;7.37;;;3.97;;
37559;SDS011;23398;50.928;7.084;2024-01-16T06:51:10;8.33;;;3.80;;
37559;SDS011;23398;50.928;7.084;2024-01-16T06:53:38;6.27;;;3.30;;
37559;SDS011;23398;50.928;7.084;2024-01-16T06:56:05;7.10;;;3.47;;
37559;SDS011;23398;50.928;7.084;2024-01-16T06:58:32;6.83;;;3.47;;
37559;SDS011;23398;50.928;7.084;2024-01-16T07:00:57;6.43;;;3.23;;
37559;SDS011;23398;50.928;7.084;2024-01-16T07:03:23;7.77;;;3.13;;
37559;SDS011;23398;50.928;7.084;2024-01-16T07:05:49;7.40;;;3.53;;
37559;SDS011;23398;50.928;7.084;2024-01-16T07:08:14;5.53;;;3.10;;
37559;SDS011;23398;50.928;7.084;2024-01-16T07:10:40;6.13;;;3.10;;
37559;SDS011;23398;50.928;7.084;2024-01-16T07:13:05;6.70;;;3.77;;
37559;SDS011;23398;50.928;7.084;2024-01-16T07:15:32;7.20;;;3.00;;
37559;SDS011;23398;50.928;7.084;2024-01-16T07:17:58;4.97;;;2.97;;
37559;SDS011;23398;50.928;7.084;2024-01-16T07:20:23;6.00;;;2.90;;
37559;SDS011;23398;50.928;7.084;2024-01-16T07:22:49;9.87;;;3.00;;
37559;SDS011;23398;50.928;7.084;2024-01-16T07:25:14;6.53;;;3.03;;
37559;SDS011;23398;50.928;7.084;2024-01-16T07:27:40;6.40;;;2.77;;
37559;SDS011;23398;50.928;7.084;2024-01-16T07:30:07;6.63;;;2.70;;
37559;SDS011;23398;50.928;7.084;2024-01-16T07:32:33;7.37;;;3.07;;
37559;SDS011;23398;50.928;7.084;2024-01-16T07:34:59;6.60;;;2.60;;
37559;SDS011;23398;50.928;7.084;2024-01-16T07:37:24;4.00;;;2.40;;
37559;SDS011;23398;50.928;7.084;2024-01-16T07:39:50;6.87;;;2.80;;
37559;SDS011;23398;50.928;7.084;2024-01-16T07:42:16;5.80;;;2.83;;
37559;SDS011;23398;50.928;7.084;2024-01-16T07:44:41;6.00;;;2.60;;
37559;SDS011;23398;50.928;7.084;2024-01-16T07:47:07;4.67;;;2.63;;
37559;SDS011;23398;50.928;7.084;2024-01-16T07:49:33;7.53;;;2.40;;
37559;SDS011;23398;50.928;7.084;2024-01-16T07:51:59;6.13;;;2.90;;
37559;SDS011;23398;50.928;7.084;2024-01-16T07:54:24;8.37;;;2.90;;
37559;SDS011;23398;50.928;7.084;2024-01-16T07:56:51;6.27;;;2.30;;
37559;SDS011;23398;50.928;7.084;2024-01-16T07:59:16;4.37;;;2.47;;
37559;SDS011;23398;50.928;7.084;2024-01-16T08:01:42;7.93;;;2.40;;
37559;SDS011;23398;50.928;7.084;2024-01-16T08:04:08;5.80;;;2.20;;
37559;SDS011;23398;50.928;7.084;2024-01-16T08:06:33;6.23;;;2.30;;
37559;SDS011;23398;50.928;7.084;2024-01-16T08:08:59;5.40;;;2.07;;
37559;SDS011;23398;50.928;7.084;2024-01-16T08:11:25;4.37;;;2.10;;
37559;SDS011;23398;50.928;7.084;2024-01-16T08:13:51;3.13;;;1.80;;
37559;SDS011;23398;50.928;7.084;2024-01-16T08:16:16;4.50;;;2.07;;
37559;SDS011;23398;50.928;7.084;2024-01-16T08:18:42;5.20;;;2.17;;
37559;SDS011;23398;50.928;7.084;2024-01-16T08:21:07;5.68;;;2.05;;
37559;SDS011;23398;50.928;7.084;2024-01-16T08:23:33;5.17;;;2.00;;
37559;SDS011;23398;50.928;7.084;2024-01-16T08:25:59;2.80;;;1.63;;
37559;SDS011;23398;50.928;7.084;2024-01-16T08:28:25;5.07;;;2.13;;
37559;SDS011;23398;50.928;7.084;2024-01-16T08:30:51;8.60;;;2.30;;
37559;SDS011;23398;50.928;7.084;2024-01-16T08:33:17;5.32;;;2.10;;
37559;SDS011;23398;50.928;7.084;2024-01-16T08:35:42;5.40;;;2.38;;
37559;SDS011;23398;50.928;7.084;2024-01-16T08:38:09;4.17;;;2.07;;
37559;SDS011;23398;50.928;7.084;2024-01-16T08:40:35;9.23;;;2.77;;
37559;SDS011;23398;50.928;7.084;2024-01-16T08:43:00;10.93;;;2.50;;
37559;SDS011;23398;50.928;7.084;2024-01-16T08:45:26;5.28;;;2.50;;
37559;SDS011;23398;50.928;7.084;2024-01-16T08:47:51;4.30;;;2.30;;
37559;SDS011;23398;50.928;7.084;2024-01-16T08:50:17;5.60;;;1.90;;
37559;SDS011;23398;50.928;7.084;2024-01-16T08:52:43;5.65;;;2.10;;
37559;SDS011;23398;50.928;7.084;2024-01-16T08:55:09;3.93;;;2.17;;
37559;SDS011;23398;50.928;7.084;2024-01-16T08:57:35;7.50;;;2.27;;
37559;SDS011;23398;50.928;7.084;2024-01-16T09:00:06;4.37;;;2.00;;
37559;SDS011;23398;50.928;7.084;2024-01-16T09:02:35;7.70;;;2.03;;
37559;SDS011;23398;50.928;7.084;2024-01-16T09:05:01;5.33;;;1.80;;
37559;SDS011;23398;50.928;7.084;2024-01-16T09:07:27;5.10;;;2.00;;
37559;SDS011;23398;50.928;7.084;2024-01-16T09:09:53;4.15;;;1.77;;
37559;SDS011;23398;50.928;7.084;2024-01-16T09:12:18;4.87;;;1.90;;
37559;SDS011;23398;50.928;7.084;2024-01-16T09:14:44;5.47;;;1.88;;
37559;SDS011;23398;50.928;7.084;2024-01-16T09:17:10;3.90;;;1.63;;
37559;SDS011;23398;50.928;7.084;2024-01-16T09:19:35;3.35;;;1.70;;
37559;SDS011;23398;50.928;7.084;2024-01-16T09:22:01;3.55;;;1.83;;
37559;SDS011;23398;50.928;7.084;2024-01-16T09:24:28;6.22;;;2.05;;
37559;SDS011;23398;50.928;7.084;2024-01-16T09:26:54;4.38;;;1.73;;
37559;SDS011;23398;50.928;7.084;2024-01-16T09:29:19;4.07;;;1.65;;
37559;SDS011;23398;50.928;7.084;2024-01-16T09:31:46;3.75;;;1.83;;
37559;SDS011;23398;50.928;7.084;2024-01-16T09:34:13;4.85;;;1.95;;
37559;SDS011;23398;50.928;7.084;2024-01-16T09:36:39;4.32;;;1.70;;
37559;SDS011;23398;50.928;7.084;2024-01-16T09:39:05;2.65;;;1.70;;
37559;SDS011;23398;50.928;7.084;2024-01-16T09:41:38;4.15;;;1.60;;
37559;SDS011;23398;50.928;7.084;2024-01-16T09:44:04;4.07;;;1.67;;
37559;SDS011;23398;50.928;7.084;2024-01-16T09:46:31;5.45;;;1.83;;
37559;SDS011;23398;50.928;7.084;2024-01-16T09:48:57;3.50;;;1.52;;
37559;SDS011;23398;50.928;7.084;2024-01-16T09:51:25;3.17;;;1.52;;
37559;SDS011;23398;50.928;7.084;2024-01-16T09:53:50;4.63;;;1.50;;
37559;SDS011;23398;50.928;7.084;2024-01-16T09:56:18;5.78;;;1.60;;
37559;SDS011;23398;50.928;7.084;2024-01-16T09:58:48;3.90;;;1.80;;
37559;SDS011;23398;50.928;7.084;2024-01-16T10:01:15;4.22;;;1.60;;
37559;SDS011;23398;50.928;7.084;2024-01-16T10:03:42;3.47;;;1.73;;
37559;SDS011;23398;50.928;7.084;2024-01-16T10:06:09;5.30;;;1.80;;
37559;SDS011;23398;50.928;7.084;2024-01-16T10:08:36;4.88;;;1.65;;
37559;SDS011;23398;50.928;7.084;2024-01-16T10:11:02;4.63;;;1.80;;
37559;SDS011;23398;50.928;7.084;2024-01-16T10:13:28;5.65;;;1.90;;
37559;SDS011;23398;50.928;7.084;2024-01-16T10:15:54;10.20;;;1.95;;
37559;SDS011;23398;50.928;7.084;2024-01-16T10:18:24;5.63;;;1.83;;
37559;SDS011;23398;50.928;7.084;2024-01-16T10:20:51;4.45;;;1.67;;
37559;SDS011;23398;50.928;7.084;2024-01-16T10:23:24;4.80;;;1.60;;
37559;SDS011;23398;50.928;7.084;2024-01-16T10:26:10;4.63;;;1.98;;
37559;SDS011;23398;50.928;7.084;2024-01-16T10:28:37;4.53;;;2.03;;
37559;SDS011;23398;50.928;7.084;2024-01-16T10:31:04;3.67;;;1.73;;
37559;SDS011;23398;50.928;7.084;2024-01-16T10:33:31;3.63;;;1.77;;
37559;SDS011;23398;50.928;7.084;2024-01-16T10:36:07;4.53;;;1.98;;
37559;SDS011;23398;50.928;7.084;2024-01-16T10:38:37;5.60;;;2.00;;
37559;SDS011;23398;50.928;7.084;2024-01-16T10:41:04;4.63;;;1.83;;
37559;SDS011;23398;50.928;7.084;2024-01-16T10:43:30;4.50;;;2.20;;
37559;SDS011;23398;50.928;7.084;2024-01-16T10:46:06;7.45;;;2.30;;
37559;SDS011;23398;50.928;7.084;2024-01-16T10:48:33;3.08;;;1.70;;
37559;SDS011;23398;50.928;7.084;2024-01-16T10:50:59;3.50;;;1.58;;
37559;SDS011;23398;50.928;7.084;2024-01-16T10:53:26;4.38;;;2.10;;
37559;SDS011;23398;50.928;7.084;2024-01-16T10:55:57;3.65;;;1.80;;
37559;SDS011;23398;50.928;7.084;2024-01-16T10:58:26;4.15;;;1.80;;
37559;SDS011;23398;50.928;7.084;2024-01-16T11:00:56;5.05;;;1.80;;
37559;SDS011;23398;50.928;7.084;2024-01-16T11:03:37;4.47;;;1.65;;
37559;SDS011;23398;50.928;7.084;2024-01-16T11:06:06;4.25;;;1.90;;
37559;SDS011;23398;50.928;7.084;2024-01-16T11:08:35;3.70;;;1.88;;
37559;SDS011;23398;50.928;7.084;2024-01-16T11:11:02;9.07;;;2.00;;
37559;SDS011;23398;50.928;7.084;2024-01-16T11:13:31;6.88;;;2.20;;
37559;SDS011;23398;50.928;7.084;2024-01-16T11:15:58;6.63;;;2.40;;
37559;SDS011;23398;50.928;7.084;2024-01-16T11:18:24;4.60;;;1.85;;
37559;SDS011;23398;50.928;7.084;2024-01-16T11:20:52;4.40;;;1.88;;
37559;SDS011;23398;50.928;7.084;2024-01-16T11:23:19;3.95;;;1.83;;
37559;SDS011;23398;50.928;7.084;2024-01-16T11:25:45;4.10;;;1.95;;
37559;SDS011;23398;50.928;7.084;2024-01-16T11:28:14;5.10;;;1.80;;
37559;SDS011;23398;50.928;7.084;2024-01-16T11:30:40;4.57;;;1.80;;
37559;SDS011;23398;50.928;7.084;2024-01-16T11:35:56;7.60;;;1.90;;
37559;SDS011;23398;50.928;7.084;2024-01-16T11:38:21;4.28;;;1.85;;
37559;SDS011;23398;50.928;7.084;2024-01-16T11:40:49;6.28;;;2.25;;
37559;SDS011;23398;50.928;7.084;2024-01-16T11:46:01;6.35;;;2.22;;
37559;SDS011;23398;50.928;7.084;2024-01-16T11:48:28;3.35;;;1.75;;
37559;SDS011;23398;50.928;7.084;2024-01-16T11:50:54;4.78;;;1.60;;
37559;SDS011;23398;50.928;7.084;2024-01-16T11:53:32;5.07;;;1.92;;
37559;SDS011;23398;50.928;7.084;2024-01-16T12:01:41;5.20;;;1.65;;
37559;SDS011;23398;50.928;7.084;2024-01-16T12:04:09;5.85;;;2.08;;
37559;SDS011;23398;50.928;7.084;2024-01-16T12:06:36;4.03;;;1.60;;
37559;SDS011;23398;50.928;7.084;2024-01-16T12:09:15;3.67;;;1.58;;
37559;SDS011;23398;50.928;7.084;2024-01-16T12:11:56;3.58;;;1.65;;
37559;SDS011;23398;50.928;7.084;2024-01-16T12:14:23;2.80;;;1.70;;
37559;SDS011;23398;50.928;7.084;2024-01-16T12:16:49;3.28;;;1.95;;
37559;SDS011;23398;50.928;7.084;2024-01-16T12:19:14;3.45;;;2.08;;
37559;SDS011;23398;50.928;7.084;2024-01-16T12:21:41;6.70;;;2.20;;
37559;SDS011;23398;50.928;7.084;2024-01-16T12:24:08;4.68;;;2.03;;
37559;SDS011;23398;50.928;7.084;2024-01-16T12:26:35;5.78;;;2.00;;
37559;SDS011;23398;50.928;7.084;2024-01-16T12:29:01;4.25;;;1.67;;
37559;SDS011;23398;50.928;7.084;2024-01-16T12:31:27;4.20;;;1.80;;
37559;SDS011;23398;50.928;7.084;2024-01-16T12:33:55;4.43;;;1.90;;
37559;SDS011;23398;50.928;7.084;2024-01-16T12:36:32;4.70;;;1.63;;
37559;SDS011;23398;50.928;7.084;2024-01-16T12:38:58;4.60;;;1.85;;
37559;SDS011;23398;50.928;7.084;2024-01-16T12:41:24;5.43;;;1.80;;
37559;SDS011;23398;50.928;7.084;2024-01-16T12:43:53;4.25;;;1.77;;
37559;SDS011;23398;50.928;7.084;2024-01-16T12:46:18;3.05;;;1.65;;
37559;SDS011;23398;50.928;7.084;2024-01-16T12:48:45;4.00;;;1.65;;
37559;SDS011;23398;50.928;7.084;2024-01-16T12:51:19;4.93;;;1.90;;
37559;SDS011;23398;50.928;7.084;2024-01-16T12:53:46;4.68;;;1.90;;
37559;SDS011;23398;50.928;7.084;2024-01-16T12:56:12;4.57;;;2.10;;
37559;SDS011;23398;50.928;7.084;2024-01-16T12:58:38;4.72;;;2.08;;
37559;SDS011;23398;50.928;7.084;2024-01-16T13:01:21;5.13;;;2.30;;
37559;SDS011;23398;50.928;7.084;2024-01-16T13:03:48;4.10;;;2.20;;
37559;SDS011;23398;50.928;7.084;2024-01-16T13:06:19;3.35;;;1.92;;
37559;SDS011;23398;50.928;7.084;2024-01-16T13:08:49;4.10;;;2.40;;
37559;SDS011;23398;50.928;7.084;2024-01-16T13:11:15;2.63;;;1.85;;
37559;SDS011;23398;50.928;7.084;2024-01-16T13:13:47;3.13;;;2.10;;
37559;SDS011;23398;50.928;7.084;2024-01-16T13:16:13;4.28;;;2.22;;
37559;SDS011;23398;50.928;7.084;2024-01-16T13:18:42;3.67;;;1.92;;
37559;SDS011;23398;50.928;7.084;2024-01-16T13:21:08;3.65;;;2.22;;
37559;SDS011;23398;50.928;7.084;2024-01-16T13:23:34;4.25;;;2.20;;
37559;SDS011;23398;50.928;7.084;2024-01-16T13:26:00;4.22;;;2.20;;
37559;SDS011;23398;50.928;7.084;2024-01-16T13:28:28;4.97;;;2.53;;
37559;SDS011;23398;50.928;7.084;2024-01-16T13:30:54;5.68;;;2.30;;
37559;SDS011;23398;50.928;7.084;2024-01-16T13:33:21;3.47;;;2.10;;
37559;SDS011;23398;50.928;7.084;2024-01-16T13:35:52;2.83;;;2.00;;
37559;SDS011;23398;50.928;7.084;2024-01-16T13:38:19;3.78;;;1.92;;
37559;SDS011;23398;50.928;7.084;2024-01-16T13:40:46;6.27;;;3.17;;
37559;SDS011;23398;50.928;7.084;2024-01-16T13:43:12;5.40;;;2.67;;
37559;SDS011;23398;50.928;7.084;2024-01-16T13:45:38;5.43;;;2.47;;
37559;SDS011;23398;50.928;7.084;2024-01-16T13:48:04;7.70;;;2.42;;
37559;SDS011;23398;50.928;7.084;2024-01-16T13:50:34;3.97;;;2.35;;
37559;SDS011;23398;50.928;7.084;2024-01-16T13:53:00;7.05;;;2.10;;
37559;SDS011;23398;50.928;7.084;2024-01-16T13:55:29;3.97;;;2.13;;
37559;SDS011;23398;50.928;7.084;2024-01-16T13:57:56;5.45;;;2.40;;
37559;SDS011;23398;50.928;7.084;2024-01-16T14:00:23;3.42;;;1.83;;
37559;SDS011;23398;50.928;7.084;2024-01-16T14:02:49;4.88;;;2.10;;
37559;SDS011;23398;50.928;7.084;2024-01-16T14:05:16;4.53;;;2.13;;
37559;SDS011;23398;50.928;7.084;2024-01-16T14:07:46;4.83;;;2.27;;
37559;SDS011;23398;50.928;7.084;2024-01-16T14:10:15;4.18;;;2.08;;
37559;SDS011;23398;50.928;7.084;2024-01-16T14:12:41;4.93;;;2.10;;
37559;SDS011;23398;50.928;7.084;2024-01-16T14:15:08;3.55;;;2.00;;
37559;SDS011;23398;50.928;7.084;2024-01-16T14:17:41;5.53;;;2.20;;
37559;SDS011;23398;50.928;7.084;2024-01-16T14:20:09;6.10;;;2.05;;
37559;SDS011;23398;50.928;7.084;2024-01-16T14:22:36;3.70;;;2.08;;
37559;SDS011;23398;50.928;7.084;2024-01-16T14:25:11;7.18;;;2.50;;
37559;SDS011;23398;50.928;7.084;2024-01-16T14:30:07;3.23;;;2.30;;
37559;SDS011;23398;50.928;7.084;2024-01-16T14:32:35;4.57;;;2.40;;
37559;SDS011;23398;50.928;7.084;2024-01-16T14:35:02;5.97;;;2.40;;
37559;SDS011;23398;50.928;7.084;2024-01-16T14:37:30;3.63;;;2.07;;
37559;SDS011;23398;50.928;7.084;2024-01-16T14:39:56;5.73;;;2.43;;
37559;SDS011;23398;50.928;7.084;2024-01-16T14:42:26;4.47;;;2.40;;
37559;SDS011;23398;50.928;7.084;2024-01-16T14:44:52;5.07;;;2.47;;
37559;SDS011;23398;50.928;7.084;2024-01-16T14:47:17;4.40;;;2.33;;
37559;SDS011;23398;50.928;7.084;2024-01-16T14:49:43;4.10;;;2.20;;
37559;SDS011;23398;50.928;7.084;2024-01-16T14:52:08;3.27;;;2.10;;
37559;SDS011;23398;50.928;7.084;2024-01-16T14:54:34;6.77;;;2.17;;
37559;SDS011;23398;50.928;7.084;2024-01-16T14:56:59;4.67;;;1.90;;
37559;SDS011;23398;50.928;7.084;2024-01-16T14:59:25;4.90;;;2.20;;